Time;durP1;ratioP1;P1;durP2;ratioP2;P2;SDS_P1;SDS_P2;PMS_P1;PMS_P2;Temp;Humidity;BMP_temperature;BMP_pressure;BME280_temperature;BME280_humidity;BME280_pressure;Samples;Min_cycle;Max_cycle;Signal;HPM_P1;HPM_P2
2023/04/12 00:01:04;;;;;;;4.70;2.97;;;;;;;8.69;91.02;99778.81;5085422;28;20028;-73
2023/04/12 00:03:32;;;;;;;4.00;2.40;;;;;;;8.61;89.78;99751.94;5085242;28;20476;-72
2023/04/12 00:05:58;;;;;;;3.22;2.53;;;;;;;8.68;89.54;99772.59;5085442;28;20055;-73
2023/04/12 00:08:31;;;;;;;2.72;1.98;;;;;;;8.57;90.33;99758.50;5085067;28;20032;-72
2023/04/12 00:10:57;;;;;;;4.93;2.60;;;;;;;8.44;90.25;99747.22;5085070;28;20036;-72
2023/04/12 00:13:23;;;;;;;8.68;2.70;;;;;;;8.61;88.60;99762.63;5086096;28;20028;-73
2023/04/12 00:15:48;;;;;;;3.65;1.88;;;;;;;8.58;88.27;99754.88;5087230;28;20497;-73
2023/04/12 00:18:14;;;;;;;6.70;1.95;;;;;;;8.61;87.31;99746.59;5072232;28;20027;-72
2023/04/12 00:20:39;;;;;;;4.30;2.10;;;;;;;8.47;87.88;99755.81;5087653;28;20032;-72
2023/04/12 00:23:05;;;;;;;6.13;2.03;;;;;;;8.41;86.94;99745.66;5085080;28;20504;-73
2023/04/12 00:25:31;;;;;;;5.07;2.25;;;;;;;8.36;87.94;99758.59;5087464;28;20096;-73
2023/04/12 00:27:56;;;;;;;3.38;2.13;;;;;;;8.29;88.04;99757.41;5084866;28;20031;-72
2023/04/12 00:30:22;;;;;;;3.40;1.65;;;;;;;8.28;87.51;99768.22;5085211;28;20039;-73
2023/04/12 00:32:48;;;;;;;3.30;1.77;;;;;;;8.38;85.00;99747.75;5084905;28;20028;-72
2023/04/12 00:35:14;;;;;;;3.42;1.95;;;;;;;8.34;85.58;99759.69;5085619;28;20408;-73
2023/04/12 00:37:39;;;;;;;3.97;1.88;;;;;;;8.36;85.23;99763.09;5084895;28;20024;-73
2023/04/12 00:40:08;;;;;;;4.75;2.25;;;;;;;8.38;85.10;99761.97;5085193;28;20028;-73
2023/04/12 00:42:35;;;;;;;5.47;2.05;;;;;;;8.40;84.60;99748.47;5085226;28;20032;-72
2023/04/12 00:45:01;;;;;;;3.30;2.28;;;;;;;8.17;85.96;99755.81;5085058;28;20040;-71
2023/04/12 00:47:28;;;;;;;6.20;1.90;;;;;;;7.92;86.81;99723.31;5085397;28;20035;-72
2023/04/12 00:49:54;;;;;;;3.72;2.45;;;;;;;8.03;87.82;99760.63;5084640;28;20387;-73
2023/04/12 00:52:21;;;;;;;5.63;2.30;;;;;;;7.79;88.80;99728.03;5067270;28;20084;-72
2023/04/12 00:54:46;;;;;;;3.85;2.17;;;;;;;7.98;88.02;99749.50;5085030;28;20031;-73
2023/04/12 00:57:12;;;;;;;8.27;2.08;;;;;;;7.79;89.17;99731.56;5085464;28;20432;-73
2023/04/12 00:59:38;;;;;;;4.05;2.53;;;;;;;7.88;90.04;99757.47;5084613;28;20463;-73
2023/04/12 01:02:03;;;;;;;5.07;2.47;;;;;;;7.85;90.00;99759.53;5085410;28;20063;-73
2023/04/12 01:04:29;;;;;;;9.38;2.70;;;;;;;7.69;90.74;99719.13;5085085;28;20070;-72
2023/04/12 01:07:22;;;;;;;3.25;2.70;;;;;;;7.88;89.54;99735.25;5085227;28;20165;-73
2023/04/12 01:10:14;;;;;;;6.30;2.65;;;;;;;7.85;90.76;99743.53;5082514;28;20024;-73
2023/04/12 01:13:09;;;;;;;4.28;2.85;;;;;;;7.97;89.73;99745.16;5082479;28;20073;-73
2023/04/12 01:15:38;;;;;;;;;;;;;;;7.85;90.70;99747.03;5049829;28;20711;-73
2023/04/12 01:18:09;;;;;;;4.80;2.85;;;;;;;7.81;91.64;99750.09;5085240;28;19915;-73
2023/04/12 01:20:43;;;;;;;6.38;2.83;;;;;;;7.91;90.01;99729.66;5084791;28;20150;-73
2023/04/12 01:23:34;;;;;;;4.80;2.83;;;;;;;7.90;90.24;99734.13;5084762;28;20503;-72
2023/04/12 01:26:09;;;;;;;8.50;3.22;;;;;;;7.97;89.92;99740.63;5076121;28;20074;-73
2023/04/12 01:28:40;;;;;;;6.10;2.75;;;;;;;7.90;90.07;99726.13;5082907;28;20028;-73
2023/04/12 01:31:07;;;;;;;4.70;2.95;;;;;;;7.86;90.35;99738.06;5083195;28;20031;-73
2023/04/12 01:33:35;;;;;;;3.83;2.78;;;;;;;7.78;91.39;99740.56;5084782;28;20027;-73
2023/04/12 01:36:12;;;;;;;7.07;3.22;;;;;;;7.78;91.05;99735.22;5085094;28;20081;-72
2023/04/12 01:38:40;;;;;;;3.45;2.40;;;;;;;7.86;90.80;99734.53;5084644;28;20059;-73
2023/04/12 01:41:07;;;;;;;4.53;3.40;;;;;;;7.80;91.18;99735.06;5084982;28;20024;-69
2023/04/12 01:43:32;;;;;;;6.25;3.10;;;;;;;7.51;91.70;99718.03;5084227;28;20107;-69
2023/04/12 01:45:58;;;;;;;4.13;3.00;;;;;;;7.70;91.25;99729.66;5081539;28;20158;-68
2023/04/12 01:48:24;;;;;;;7.85;3.40;;;;;;;7.60;91.64;99759.91;5084359;28;20024;-68
2023/04/12 01:51:11;;;;;;;4.75;3.10;;;;;;;7.60;91.76;99759.91;5083924;28;20032;-69
2023/04/12 01:53:53;;;;;;;3.97;3.22;;;;;;;7.51;92.68;99750.88;5082871;28;20026;-68
2023/04/12 01:56:21;;;;;;;7.03;3.22;;;;;;;7.52;92.50;99752.59;5088060;28;20107;-69
2023/04/12 01:58:49;;;;;;;6.65;3.15;;;;;;;7.61;91.23;99734.94;5087553;28;20051;-68
2023/04/12 02:01:17;;;;;;;4.60;3.55;;;;;;;7.45;92.22;99731.88;5087833;28;20036;-68
2023/04/12 02:03:48;;;;;;;4.65;2.85;;;;;;;7.49;92.39;99733.31;5086979;28;20020;-68
2023/04/12 02:06:15;;;;;;;6.60;3.25;;;;;;;7.52;91.57;99738.38;5069287;28;20517;-69
2023/04/12 02:08:40;;;;;;;5.20;3.30;;;;;;;7.42;92.24;99718.81;5087371;28;20027;-69
2023/04/12 02:11:09;;;;;;;5.80;3.17;;;;;;;7.54;91.93;99747.94;5088668;28;20032;-69
2023/04/12 02:13:35;;;;;;;6.57;3.42;;;;;;;7.43;92.48;99736.50;5072764;28;20015;-68
2023/04/12 02:16:01;;;;;;;4.25;3.25;;;;;;;7.59;91.11;99744.91;5087290;28;20471;-68
2023/04/12 02:18:27;;;;;;;4.13;3.28;;;;;;;7.55;91.62;99749.66;5089479;28;20032;-68
2023/04/12 02:20:53;;;;;;;4.70;3.08;;;;;;;7.49;91.84;99739.50;5084415;28;20380;-68
2023/04/12 02:23:18;;;;;;;7.13;3.50;;;;;;;7.49;91.26;99730.66;5087128;28;20035;-68
2023/04/12 02:25:45;;;;;;;7.55;3.17;;;;;;;7.48;91.58;99728.97;5068454;28;20042;-69
2023/04/12 02:28:14;;;;;;;9.45;5.28;;;;;;;7.52;91.56;99730.38;5087007;28;20383;-68
2023/04/12 02:30:40;;;;;;;3.95;3.42;;;;;;;7.34;92.35;99723.91;5087257;28;20049;-68
2023/04/12 02:33:08;;;;;;;7.22;3.63;;;;;;;7.32;92.89;99726.72;5086567;28;20028;-69
2023/04/12 02:35:35;;;;;;;5.85;3.28;;;;;;;7.30;93.50;99727.81;5086633;28;20016;-68
2023/04/12 02:38:02;;;;;;;5.00;3.58;;;;;;;7.28;93.38;99724.47;5067634;28;20032;-69
2023/04/12 02:40:28;;;;;;;5.97;3.25;;;;;;;7.26;93.97;99737.06;5087239;28;20483;-69
2023/04/12 02:42:54;;;;;;;5.40;3.50;;;;;;;7.28;93.42;99714.63;5086526;28;20024;-69
2023/04/12 02:45:19;;;;;;;4.57;3.38;;;;;;;7.41;92.22;99719.78;5086373;28;20050;-68
2023/04/12 02:47:45;;;;;;;8.98;5.10;;;;;;;7.29;92.55;99723.47;5068081;28;20031;-68
2023/04/12 02:50:10;;;;;;;4.45;3.08;;;;;;;7.24;93.52;99717.66;5085830;28;20055;-68
2023/04/12 02:52:36;;;;;;;5.30;3.70;;;;;;;7.18;93.11;99707.50;5087006;28;20050;-68
2023/04/12 02:55:02;;;;;;;6.07;3.95;;;;;;;7.20;93.37;99710.91;5067454;28;20150;-69
2023/04/12 02:57:27;;;;;;;4.65;3.20;;;;;;;7.37;91.89;99705.00;5086681;28;21025;-69
2023/04/12 02:59:53;;;;;;;6.70;3.70;;;;;;;7.48;91.69;99729.78;5086085;28;20030;-69
2023/04/12 03:02:20;;;;;;;4.82;3.58;;;;;;;7.40;91.61;99721.59;5086445;28;20071;-69
2023/04/12 03:04:49;;;;;;;5.90;3.72;;;;;;;7.62;90.36;99731.28;5085520;28;20507;-68
2023/04/12 03:07:19;;;;;;;5.85;3.83;;;;;;;7.44;90.99;99730.16;5085600;28;20024;-68
2023/04/12 03:09:49;;;;;;;6.63;3.60;;;;;;;7.45;91.30;99721.22;5085750;28;20028;-69
2023/04/12 03:12:15;;;;;;;6.38;3.15;;;;;;;7.45;90.79;99731.88;5086353;28;20545;-68
2023/04/12 03:14:41;;;;;;;5.95;3.70;;;;;;;7.26;91.24;99721.06;5085673;28;20028;-68
2023/04/12 03:17:07;;;;;;;4.95;3.40;;;;;;;7.19;92.53;99725.22;5086193;28;20088;-69
2023/04/12 03:19:34;;;;;;;4.97;4.00;;;;;;;7.22;91.96;99738.31;5086243;28;20500;-69
2023/04/12 03:22:00;;;;;;;8.77;3.40;;;;;;;7.24;91.48;99717.66;5085951;28;20085;-69
2023/04/12 03:24:32;;;;;;;4.90;3.63;;;;;;;7.11;92.71;99725.00;5085905;28;20040;-69
2023/04/12 03:26:58;;;;;;;7.28;4.03;;;;;;;7.07;92.48;99720.91;5086133;28;20471;-68
2023/04/12 03:29:23;;;;;;;5.82;3.80;;;;;;;7.24;91.67;99734.53;5085628;28;20039;-69
2023/04/12 03:31:49;;;;;;;5.65;3.85;;;;;;;7.24;91.68;99731.88;5085973;28;20365;-68
2023/04/12 03:34:15;;;;;;;5.53;3.33;;;;;;;7.11;91.47;99712.53;5085908;28;20012;-68
2023/04/12 03:36:40;;;;;;;5.30;3.90;;;;;;;7.16;91.76;99736.97;5085669;28;20467;-67
2023/04/12 03:39:06;;;;;;;6.53;4.18;;;;;;;6.88;92.29;99702.91;5085742;28;20195;-68
2023/04/12 03:41:32;;;;;;;5.60;3.85;;;;;;;6.99;92.66;99734.84;5086133;28;20032;-68
2023/04/12 03:43:58;;;;;;;9.30;3.95;;;;;;;6.90;93.46;99730.28;5085147;28;20495;-69
2023/04/12 03:46:23;;;;;;;6.63;4.03;;;;;;;6.83;93.63;99724.63;5085688;28;20103;-68
2023/04/12 03:48:50;;;;;;;6.45;4.30;;;;;;;6.91;93.61;99734.66;5085412;28;20036;-69
2023/04/12 03:51:16;;;;;;;6.47;4.53;;;;;;;6.87;93.99;99734.06;5092718;28;20502;-68
2023/04/12 03:53:42;;;;;;;8.32;4.53;;;;;;;6.85;94.26;99736.00;5089952;28;20020;-69
2023/04/12 03:56:07;;;;;;;6.03;4.30;;;;;;;6.24;93.90;99629.25;5085390;28;20133;-69
2023/04/12 03:58:33;;;;;;;5.40;3.97;;;;;;;6.78;93.52;99712.66;5084383;28;20157;-69
2023/04/12 04:01:04;;;;;;;5.65;4.03;;;;;;;6.88;92.38;99721.59;5066312;28;20027;-69
2023/04/12 04:03:33;;;;;;;6.45;4.10;;;;;;;6.92;93.11;99742.53;5093361;28;20038;-70
2023/04/12 04:06:02;;;;;;;7.15;3.67;;;;;;;6.88;91.93;99722.44;5091046;28;20040;-68
2023/04/12 04:08:28;;;;;;;5.47;3.75;;;;;;;6.85;93.12;99738.69;5086859;28;20032;-69
2023/04/12 04:10:55;;;;;;;8.77;3.88;;;;;;;6.65;93.35;99718.13;5068938;28;20032;-69
2023/04/12 04:13:21;;;;;;;6.53;3.72;;;;;;;6.86;92.10;99721.72;5084707;28;20039;-70
2023/04/12 04:15:50;;;;;;;5.28;3.55;;;;;;;6.86;92.63;99743.03;5084517;28;20023;-69
2023/04/12 04:18:15;;;;;;;6.68;4.03;;;;;;;6.61;92.57;99698.03;5084247;28;20459;-68
2023/04/12 04:20:41;;;;;;;7.75;4.05;;;;;;;6.72;93.60;99737.13;5084273;28;20032;-68
2023/04/12 04:23:09;;;;;;;5.07;3.92;;;;;;;6.75;93.13;99736.88;5085076;28;20380;-69
2023/04/12 04:25:38;;;;;;;7.60;3.95;;;;;;;6.72;94.10;99748.66;5084921;28;20028;-69
2023/04/12 04:28:06;;;;;;;5.72;4.10;;;;;;;6.68;93.89;99744.50;5066041;28;20035;-68
2023/04/12 04:30:37;;;;;;;7.20;4.25;;;;;;;6.62;94.54;99737.00;5084815;28;20436;-68
2023/04/12 04:33:06;;;;;;;7.80;4.13;;;;;;;6.63;94.71;99732.53;5086422;28;20016;-69
2023/04/12 04:35:32;;;;;;;8.95;4.95;;;;;;;6.65;95.13;99735.94;5064255;28;20051;-68
2023/04/12 04:37:59;;;;;;;8.75;4.88;;;;;;;6.69;94.53;99740.91;5081223;28;20379;-68
2023/04/12 04:40:24;;;;;;;7.03;4.13;;;;;;;6.75;94.79;99742.22;5077170;28;20055;-69
2023/04/12 04:42:56;;;;;;;6.65;3.97;;;;;;;6.73;94.77;99733.47;5081151;28;20379;-69
2023/04/12 04:45:26;;;;;;;6.25;4.20;;;;;;;6.82;94.52;99746.06;5083896;28;20141;-68
2023/04/12 04:47:55;;;;;;;7.78;3.78;;;;;;;6.89;92.85;99737.44;5083583;28;20035;-70
2023/04/12 04:50:22;;;;;;;7.03;3.70;;;;;;;6.95;92.51;99741.44;5083970;28;20093;-69
2023/04/12 04:52:48;;;;;;;4.75;3.40;;;;;;;7.06;92.07;99741.38;5083953;28;20156;-69
2023/04/12 04:55:16;;;;;;;6.00;3.60;;;;;;;7.07;89.70;99709.25;5084588;28;20032;-69
2023/04/12 04:57:41;;;;;;;7.45;3.58;;;;;;;7.06;90.01;99725.38;5083850;28;20032;-68
2023/04/12 05:00:10;;;;;;;6.70;3.58;;;;;;;7.22;90.99;99748.97;5084335;28;20171;-69
2023/04/12 05:02:38;;;;;;;7.10;3.88;;;;;;;7.30;90.22;99754.50;5084570;28;20376;-68
2023/04/12 05:05:06;;;;;;;6.82;3.45;;;;;;;7.37;89.80;99761.88;5083656;28;20447;-68
2023/04/12 05:07:31;;;;;;;8.60;4.63;;;;;;;7.38;89.01;99741.38;5083929;28;20032;-68
2023/04/12 05:09:56;;;;;;;5.25;4.10;;;;;;;7.37;90.10;99761.00;5083953;28;20436;-69
2023/04/12 05:12:22;;;;;;;5.47;3.92;;;;;;;7.39;90.18;99764.41;5083954;28;20019;-71
2023/04/12 05:14:47;;;;;;;6.32;3.80;;;;;;;7.31;91.17;99754.38;5084117;28;20036;-72
2023/04/12 05:17:13;;;;;;;6.18;3.63;;;;;;;7.35;89.06;99736.31;5084643;28;20111;-73
2023/04/12 05:19:40;;;;;;;5.03;3.65;;;;;;;7.62;86.93;99768.66;5085087;28;20028;-73
2023/04/12 05:22:05;;;;;;;6.03;4.20;;;;;;;7.58;88.55;99770.72;5085225;28;20024;-72
2023/04/12 05:24:31;;;;;;;7.57;4.43;;;;;;;7.66;87.86;99772.75;5085467;28;20024;-73
2023/04/12 05:26:56;;;;;;;5.15;4.40;;;;;;;7.65;88.18;99761.25;5084850;28;20793;-72
2023/04/12 05:29:22;;;;;;;5.72;4.18;;;;;;;7.93;85.79;99773.09;5086820;28;20027;-72
2023/04/12 05:31:47;;;;;;;6.13;3.90;;;;;;;8.10;83.67;99757.28;5088629;28;20111;-74
2023/04/12 05:34:12;;;;;;;7.28;4.40;;;;;;;7.97;83.68;99737.13;5088739;28;20020;-74
2023/04/12 05:36:38;;;;;;;6.60;4.40;;;;;;;8.06;84.64;99755.03;5081495;28;20022;-73
2023/04/12 05:39:03;;;;;;;10.05;4.93;;;;;;;8.13;85.31;99753.53;5088793;28;20036;-72
2023/04/12 05:41:30;;;;;;;5.88;4.07;;;;;;;8.31;85.12;99770.63;5089007;28;20040;-73
2023/04/12 05:43:55;;;;;;;6.28;3.83;;;;;;;8.42;83.32;99765.22;5088588;28;20032;-73
2023/04/12 05:46:21;;;;;;;6.10;4.03;;;;;;;8.68;79.94;99769.13;5088854;28;20043;-73
2023/04/12 05:48:46;;;;;;;6.13;3.95;;;;;;;8.77;80.51;99779.81;5087602;28;20443;-73
2023/04/12 05:51:12;;;;;;;5.97;4.28;;;;;;;9.09;77.51;99777.78;5089126;28;20587;-73
2023/04/12 05:53:37;;;;;;;8.45;3.72;;;;;;;9.22;75.39;99769.47;5070074;28;20106;-73
2023/04/12 05:56:03;;;;;;;9.48;4.47;;;;;;;9.39;74.94;99766.13;5088886;28;20455;-73
2023/04/12 05:58:29;;;;;;;7.15;3.97;;;;;;;9.19;76.22;99746.53;5088555;28;20024;-72
2023/04/12 06:00:54;;;;;;;5.68;4.07;;;;;;;9.62;73.72;99766.69;5089072;28;20487;-71
2023/04/12 06:03:22;;;;;;;5.35;3.53;;;;;;;9.51;73.70;99754.28;5088763;28;20123;-73
2023/04/12 06:05:48;;;;;;;6.35;4.05;;;;;;;9.77;72.36;99762.59;5088495;28;20032;-73
2023/04/12 06:08:14;;;;;;;6.78;4.05;;;;;;;9.85;71.81;99762.69;5070707;28;20047;-73
2023/04/12 06:10:39;;;;;;;7.35;3.47;;;;;;;9.76;71.91;99734.94;5088997;28;20534;-72
2023/04/12 06:13:05;;;;;;;6.45;3.95;;;;;;;9.76;72.42;99728.75;5087811;28;20028;-73
2023/04/12 06:15:30;;;;;;;5.63;3.67;;;;;;;10.19;69.85;99755.91;5070256;28;20124;-72
2023/04/12 06:17:58;;;;;;;4.07;3.47;;;;;;;10.31;70.28;99760.06;5066976;28;20526;-69
2023/04/12 06:20:23;;;;;;;7.90;3.53;;;;;;;10.51;68.03;99757.16;5087349;28;20039;-69
2023/04/12 06:22:49;;;;;;;5.70;3.58;;;;;;;10.56;67.08;99746.00;5068603;28;20020;-69
2023/04/12 06:25:15;;;;;;;4.85;3.67;;;;;;;10.69;65.51;99731.25;5087145;28;20024;-69
2023/04/12 06:27:41;;;;;;;4.70;3.40;;;;;;;10.79;66.64;99748.13;5087192;28;20032;-68
2023/04/12 06:30:07;;;;;;;5.13;3.40;;;;;;;10.92;67.32;99754.00;5087252;28;20030;-68
2023/04/12 06:32:33;;;;;;;6.10;4.15;;;;;;;11.02;65.76;99727.09;5087588;28;20037;-68
2023/04/12 06:34:58;;;;;;;5.07;3.30;;;;;;;11.34;64.29;99768.53;5086449;28;20053;-69
2023/04/12 06:37:24;;;;;;;4.70;3.38;;;;;;;11.25;63.50;99744.44;5086982;28;20028;-68
2023/04/12 06:39:50;;;;;;;8.60;4.28;;;;;;;11.55;62.12;99770.91;5067856;28;20024;-69
2023/04/12 06:42:16;;;;;;;6.07;3.88;;;;;;;11.38;63.01;99748.44;5086814;28;20626;-68
2023/04/12 06:44:41;;;;;;;5.15;3.33;;;;;;;11.47;62.71;99757.41;5086621;28;20044;-67
2023/04/12 06:47:07;;;;;;;5.78;3.65;;;;;;;11.50;62.34;99755.25;5086753;28;20036;-68
2023/04/12 06:49:32;;;;;;;4.53;2.95;;;;;;;11.49;62.17;99761.59;5068694;28;20028;-68
2023/04/12 06:51:58;;;;;;;4.90;3.30;;;;;;;11.68;62.85;99763.34;5085533;28;20040;-68
2023/04/12 06:54:23;;;;;;;7.80;3.40;;;;;;;11.90;59.99;99749.38;5086946;28;20028;-68
2023/04/12 06:56:49;;;;;;;4.60;2.88;;;;;;;12.02;60.30;99769.63;5085785;28;20031;-68
2023/04/12 06:59:14;;;;;;;6.15;3.20;;;;;;;12.04;59.43;99761.41;5086309;28;20050;-73
2023/04/12 07:01:40;;;;;;;5.07;3.60;;;;;;;11.99;58.90;99748.44;5086936;28;20395;-72
2023/04/12 07:04:05;;;;;;;6.80;3.63;;;;;;;12.15;58.87;99775.44;5083785;28;20115;-73
2023/04/12 07:06:31;;;;;;;7.97;3.08;;;;;;;12.26;58.49;99761.75;5067565;28;20182;-72
2023/04/12 07:08:57;;;;;;;5.38;3.38;;;;;;;12.27;59.41;99754.50;5086930;28;20457;-72
2023/04/12 07:11:27;;;;;;;5.32;3.78;;;;;;;12.35;59.46;99758.09;5087275;28;20080;-73
2023/04/12 07:13:52;;;;;;;5.78;3.33;;;;;;;12.32;58.89;99718.06;5084756;28;20471;-73
2023/04/12 07:16:18;;;;;;;5.78;3.22;;;;;;;12.72;57.99;99752.38;5086884;28;20066;-73
2023/04/12 07:18:43;;;;;;;6.85;3.60;;;;;;;12.90;57.28;99756.66;5087100;28;20020;-73
2023/04/12 07:21:12;;;;;;;5.15;3.47;;;;;;;13.13;56.40;99762.34;5086747;28;20540;-72
2023/04/12 07:23:38;;;;;;;5.28;3.28;;;;;;;13.21;56.12;99759.63;5086550;28;20032;-73
2023/04/12 07:26:04;;;;;;;3.97;3.40;;;;;;;13.41;56.15;99750.25;5083945;28;20035;-73
2023/04/12 07:28:29;;;;;;;5.72;3.38;;;;;;;13.63;55.78;99750.44;5086955;28;20081;-72
2023/04/12 07:30:55;;;;;;;6.47;3.55;;;;;;;13.66;54.70;99738.47;5067735;28;20046;-72
2023/04/12 07:33:20;;;;;;;5.22;2.80;;;;;;;13.91;54.61;99761.75;5067920;28;20043;-72
2023/04/12 07:35:46;;;;;;;5.03;2.80;;;;;;;14.02;53.93;99765.94;5065975;28;20368;-72
2023/04/12 07:38:11;;;;;;;3.65;2.78;;;;;;;14.24;53.41;99771.50;5063731;28;20794;-72
2023/04/12 07:40:37;;;;;;;5.38;3.30;;;;;;;14.50;50.59;99755.94;5085444;28;20515;-73
2023/04/12 07:43:02;;;;;;;5.68;3.38;;;;;;;14.39;51.44;99748.22;5085041;28;20040;-72
2023/04/12 07:45:28;;;;;;;3.42;2.80;;;;;;;14.70;51.02;99778.78;5067963;28;20115;-72
2023/04/12 07:47:53;;;;;;;5.93;3.38;;;;;;;14.67;51.15;99756.72;5086303;28;20384;-74
2023/04/12 07:50:18;;;;;;;4.57;2.67;;;;;;;14.83;51.65;99768.28;5086245;28;20032;-73
2023/04/12 07:52:44;;;;;;;4.70;3.17;;;;;;;15.09;50.08;99760.72;5085116;28;20020;-72
2023/04/12 07:55:10;;;;;;;7.70;2.80;;;;;;;15.31;49.89;99772.59;5085853;28;20075;-73
2023/04/12 07:57:35;;;;;;;6.63;3.30;;;;;;;15.46;48.99;99769.00;5085503;28;20076;-72
2023/04/12 08:00:01;;;;;;;6.68;3.28;;;;;;;15.56;48.09;99769.63;5085827;28;20069;-72
2023/04/12 08:02:26;;;;;;;5.00;3.80;;;;;;;15.53;48.40;99766.41;5085867;28;20123;-72
2023/04/12 08:04:52;;;;;;;6.07;3.63;;;;;;;15.58;48.96;99764.84;5085159;28;20015;-73
2023/04/12 08:07:19;;;;;;;7.13;3.00;;;;;;;15.66;48.79;99769.34;5085689;28;20057;-73
2023/04/12 08:09:45;;;;;;;4.10;3.08;;;;;;;16.20;46.67;99770.94;5084070;28;20070;-73
2023/04/12 08:12:11;;;;;;;8.80;2.90;;;;;;;17.15;44.07;99753.78;5086082;28;20032;-73
2023/04/12 08:14:36;;;;;;;3.30;2.90;;;;;;;18.03;42.60;99768.72;5067227;28;20089;-73
2023/04/12 08:17:02;;;;;;;5.22;3.35;;;;;;;18.51;42.06;99761.59;5084464;28;20511;-72
2023/04/12 08:19:27;;;;;;;6.15;2.70;;;;;;;19.87;39.68;99764.88;5085259;28;20039;-72
2023/04/12 08:21:53;;;;;;;3.78;2.78;;;;;;;20.78;38.26;99753.13;5084705;28;20016;-71
2023/04/12 08:24:19;;;;;;;5.47;3.00;;;;;;;22.04;35.43;99755.88;5067105;28;20032;-71
2023/04/12 08:26:45;;;;;;;5.95;2.53;;;;;;;23.96;32.40;99729.47;5084665;28;20036;-72
2023/04/12 08:29:11;;;;;;;3.55;2.47;;;;;;;25.60;29.63;99749.16;5085506;28;20028;-71
2023/04/12 08:31:37;;;;;;;3.40;2.28;;;;;;;25.13;30.23;99731.13;5085023;28;20219;-72
2023/04/12 08:34:02;;;;;;;4.68;2.67;;;;;;;25.38;29.86;99750.91;5084634;28;20017;-72
2023/04/12 08:36:28;;;;;;;3.45;2.15;;;;;;;25.38;29.41;99740.78;5083907;28;20475;-73
2023/04/12 08:38:58;;;;;;;4.00;2.30;;;;;;;25.79;28.77;99718.47;5082547;28;20088;-73
2023/04/12 08:41:24;;;;;;;3.92;2.40;;;;;;;26.25;28.45;99756.69;5084410;28;20024;-73
2023/04/12 08:43:50;;;;;;;4.13;2.28;;;;;;;26.87;27.56;99751.09;5084366;28;20027;-73
2023/04/12 08:46:16;;;;;;;5.57;2.47;;;;;;;28.12;25.66;99720.34;5084750;28;20513;-71
2023/04/12 08:48:45;;;;;;;3.58;2.45;;;;;;;27.78;26.29;99734.59;5084161;28;20058;-72
2023/04/12 08:51:16;;;;;;;3.63;2.30;;;;;;;27.76;25.79;99732.13;5084514;28;20036;-71
2023/04/12 08:53:41;;;;;;;5.32;2.33;;;;;;;29.10;24.56;99721.63;5084414;28;20032;-71
2023/04/12 08:56:11;;;;;;;7.25;2.85;;;;;;;29.07;24.53;99738.72;5084445;28;20020;-72
2023/04/12 08:58:44;;;;;;;2.35;2.13;;;;;;;29.89;23.35;99734.88;5065338;28;20111;-73
2023/04/12 09:01:12;;;;;;;3.80;2.45;;;;;;;29.46;23.78;99732.56;5083893;28;20028;-73
2023/04/12 09:03:38;;;;;;;5.45;2.65;;;;;;;29.11;23.95;99740.69;5085557;28;20078;-72
2023/04/12 09:06:05;;;;;;;2.55;2.10;;;;;;;28.79;24.66;99725.31;5070111;28;20504;-72
2023/04/12 09:08:30;;;;;;;4.18;2.40;;;;;;;29.39;23.68;99731.97;5088115;28;20123;-72
2023/04/12 09:10:56;;;;;;;3.20;2.50;;;;;;;28.60;24.62;99729.59;5085677;28;20149;-71
2023/04/12 09:13:36;;;;;;;2.70;2.38;;;;;;;28.86;24.21;99712.94;5086402;28;20539;-71
2023/04/12 09:16:03;;;;;;;4.88;2.63;;;;;;;27.48;26.00;99715.00;5068620;28;21031;-73
2023/04/12 09:18:28;;;;;;;4.63;2.72;;;;;;;27.58;25.86;99715.97;5087398;28;20039;-71
2023/04/12 09:21:07;;;;;;;4.60;2.58;;;;;;;26.78;26.39;99725.91;5087713;28;20032;-70
2023/04/12 09:23:36;;;;;;;5.75;2.63;;;;;;;26.80;25.93;99717.41;5068473;28;20480;-72
2023/04/12 09:26:01;;;;;;;3.45;2.10;;;;;;;25.91;27.17;99702.75;5088222;28;20031;-72
2023/04/12 09:28:28;;;;;;;5.80;2.25;;;;;;;24.49;29.07;99718.44;5087883;28;20036;-71
2023/04/12 09:30:58;;;;;;;6.50;3.45;;;;;;;23.34;30.61;99710.78;5069626;28;20020;-72
2023/04/12 09:33:36;;;;;;;4.32;2.30;;;;;;;22.91;30.81;99712.78;5087895;28;20028;-72
2023/04/12 09:36:03;;;;;;;3.83;2.33;;;;;;;21.64;32.63;99713.50;5068655;28;20036;-72
2023/04/12 09:38:30;;;;;;;2.50;2.30;;;;;;;20.84;33.96;99689.56;5085132;28;20055;-72
2023/04/12 09:40:56;;;;;;;3.47;2.45;;;;;;;20.86;33.93;99722.06;5087758;28;20024;-72
2023/04/12 09:43:38;;;;;;;5.72;3.03;;;;;;;20.13;35.18;99707.75;5069142;28;20046;-72
2023/04/12 09:46:14;;;;;;;3.55;2.33;;;;;;;20.17;35.49;99716.34;5087351;28;20463;-72
2023/04/12 09:48:40;;;;;;;3.05;2.75;;;;;;;19.51;36.56;99701.00;5087641;28;20530;-71
2023/04/12 09:51:07;;;;;;;4.90;2.33;;;;;;;19.19;36.49;99691.66;5086955;28;20055;-71
2023/04/12 09:53:40;;;;;;;4.40;2.80;;;;;;;18.86;37.14;99681.75;5085683;28;20057;-71
2023/04/12 09:56:07;;;;;;;6.30;2.92;;;;;;;18.90;37.36;99692.00;5068645;28;20028;-72
2023/04/12 09:58:35;;;;;;;7.93;2.80;;;;;;;18.64;38.42;99686.44;5085086;28;20062;-72
2023/04/12 10:01:02;;;;;;;4.28;2.47;;;;;;;18.80;37.41;99690.72;5087465;28;20105;-72
2023/04/12 10:03:28;;;;;;;7.00;3.15;;;;;;;19.13;35.99;99684.34;5087061;28;20013;-71
2023/04/12 10:05:54;;;;;;;6.40;2.72;;;;;;;18.80;36.45;99669.78;5067807;28;20032;-73
2023/04/12 10:08:22;;;;;;;4.07;2.40;;;;;;;18.82;37.13;99678.59;5087894;28;20445;-72
2023/04/12 10:10:47;;;;;;;6.13;3.03;;;;;;;18.28;38.66;99674.09;5087535;28;20028;-71
2023/04/12 10:13:14;;;;;;;4.40;2.80;;;;;;;18.15;39.26;99690.31;5086903;28;20020;-71
2023/04/12 10:15:42;;;;;;;4.10;2.53;;;;;;;17.95;39.78;99685.56;5068632;28;20039;-71
2023/04/12 10:18:10;;;;;;;5.68;3.08;;;;;;;18.20;38.38;99675.09;5087258;28;20511;-71
2023/04/12 10:20:39;;;;;;;6.40;3.15;;;;;;;18.35;38.22;99681.25;5087226;28;20055;-68
2023/04/12 10:23:05;;;;;;;5.43;2.50;;;;;;;18.51;37.65;99677.41;5086723;28;20039;-67
2023/04/12 10:25:31;;;;;;;3.72;2.25;;;;;;;18.21;38.40;99673.22;5087086;28;20031;-68
2023/04/12 10:28:13;;;;;;;5.95;2.50;;;;;;;18.33;37.56;99677.03;5086683;28;20111;-68
2023/04/12 10:30:38;;;;;;;3.88;1.95;;;;;;;18.02;37.98;99653.88;5068578;28;20035;-68
2023/04/12 10:33:03;;;;;;;2.67;2.10;;;;;;;17.94;38.70;99664.06;5068417;28;20475;-68
2023/04/12 10:35:47;;;;;;;3.35;2.00;;;;;;;17.85;38.50;99673.38;5086772;28;20476;-68
2023/04/12 10:38:14;;;;;;;6.72;1.98;;;;;;;18.06;37.67;99674.16;5066691;28;20036;-68
2023/04/12 10:41:19;;;;;;;3.67;2.15;;;;;;;17.94;37.75;99673.03;5086508;28;20032;-70
2023/04/12 10:43:50;;;;;;;2.28;1.88;;;;;;;17.92;38.50;99660.69;5085200;28;20051;-72
2023/04/12 10:46:37;;;;;;;3.42;2.58;;;;;;;17.80;38.94;99663.09;5086993;28;20028;-72
2023/04/12 10:49:14;;;;;;;4.72;2.78;;;;;;;17.85;38.72;99667.94;5065547;28;20053;-72
2023/04/12 10:51:59;;;;;;;2.78;2.15;;;;;;;17.56;38.77;99652.69;5084604;28;20440;-72
2023/04/12 10:54:25;;;;;;;3.13;2.00;;;;;;;17.53;39.09;99673.91;5086340;28;20678;-71
2023/04/12 10:56:51;;;;;;;3.47;2.10;;;;;;;17.52;38.52;99666.81;5085580;28;20038;-70
2023/04/12 10:59:17;;;;;;;3.15;2.13;;;;;;;17.63;37.85;99663.56;5086883;28;20062;-72
2023/04/12 11:02:09;;;;;;;2.90;2.10;;;;;;;17.67;37.84;99665.72;5086358;28;20040;-71
2023/04/12 11:04:34;;;;;;;3.13;1.98;;;;;;;17.56;38.28;99652.69;5085837;28;20529;-72
2023/04/12 11:07:03;;;;;;;3.58;2.70;;;;;;;17.64;37.42;99657.97;5067174;28;20044;-72
2023/04/12 11:09:40;;;;;;;4.32;2.30;;;;;;;17.30;37.44;99649.69;5086064;28;20128;-70
2023/04/12 11:12:06;;;;;;;6.90;2.95;;;;;;;17.22;37.66;99627.31;5083790;28;20039;-71
2023/04/12 11:14:44;;;;;;;6.50;2.13;;;;;;;17.26;38.61;99637.56;5085994;28;20503;-72
2023/04/12 11:17:12;;;;;;;5.03;2.00;;;;;;;17.19;39.45;99652.09;5083178;28;20028;-71
2023/04/12 11:19:42;;;;;;;6.18;2.50;;;;;;;17.01;40.01;99646.25;5085130;28;20114;-71
2023/04/12 11:22:10;;;;;;;2.75;2.25;;;;;;;17.06;37.14;99652.78;5067202;28;20074;-70
2023/04/12 11:24:42;;;;;;;4.95;2.35;;;;;;;17.00;38.41;99653.56;5085631;28;20147;-71
2023/04/12 11:27:08;;;;;;;4.15;2.13;;;;;;;17.01;38.13;99647.09;5083828;28;20051;-71
2023/04/12 11:29:34;;;;;;;6.15;2.33;;;;;;;16.61;37.93;99623.28;5085953;28;20036;-72
2023/04/12 11:32:04;;;;;;;3.38;2.00;;;;;;;16.61;37.69;99636.00;5085055;28;20030;-70
2023/04/12 11:34:34;;;;;;;3.35;2.05;;;;;;;16.79;36.53;99641.84;5067438;28;20043;-72
2023/04/12 11:37:03;;;;;;;4.43;1.55;;;;;;;16.74;37.08;99634.31;5083282;28;20027;-71
2023/04/12 11:39:28;;;;;;;6.82;2.42;;;;;;;16.74;36.58;99628.03;5085704;28;20035;-71
2023/04/12 11:41:55;;;;;;;2.30;1.40;;;;;;;16.73;37.43;99626.38;5085343;28;20036;-72